Grosse Ile, Michigan
Current Conditions -  °F | °C
As of 12:54 AM on Monday 20 Oct 2014 (Local Time) from KONZ Reporting Station
Overcast Overcast  
Wind Chill: 52°   Ceiling: 10000
Heat Index: 52°   Visibility: 10mi
Dew Point: 37°   Wind: 8mph
Humidity: 58%   Direction: 210°SSW
Pressure: 29.97"   Gusts: NA
Location:  42.11°N, 83.16°W
Report Text: KONZ 200454Z AUTO 21007KT 10SM OVC100 11/03 A2997 RMK AO2
Loading
Personal Weather Stations






























Interactive Weather Map
Tropical Storm Tracking
New forecast layout! Learn more

10-Day Weather Forecast

Advertisements
Track Severe Weather on mobile